Flight Track Log - Related Links

Times and Time Zones

All times are in EDT time to prevent confusion due to time zone crossing. See the CES736 flight status page for this flight to view local times or setup timezone preferences in your user account.

Time Position Orientation Groundspeed Altitude Reporting Facility
EDT Latitude Longitude Course Direction KTS MPH feet Rate Location/Type
Sat 06:37:09 AM -33.9390 151.1680 163° South 2 2  Level FlightAware ADS-B
Sat 06:42:14 AM -33.9400 151.1700 121° Southeast 10 12 42 Level FlightAware ADS-B
Sat 06:43:29 AM -33.9390 151.1720 59° Northeast 8 9 65 Level FlightAware ADS-B
Sat 06:43:54 AM -33.9370 151.1720 360° North 11 13 76 Level FlightAware ADS-B
Sat 06:44:24 AM -33.9350 151.1710 337° Northwest 14 16 80 Level FlightAware ADS-B
Sat 06:44:54 AM -33.9340 151.1710 360° North 12 14 86 Level FlightAware ADS-B
Sat 06:45:19 AM -33.9330 151.1700 320° Northwest 9 10 92 Level FlightAware ADS-B
Sat 06:45:35 AM -33.9320 151.1690 320° Northwest 11 13 99 Level FlightAware ADS-B
Sat 06:45:59 AM -33.9310 151.1690 360° North 11 13 103 Level FlightAware ADS-B
Sat 06:46:39 AM -33.9300 151.1700 40° Northeast 4 5 111 Level FlightAware ADS-B
Sat 06:49:00 AM -33.7307 150.9349 316° Northwest  Level FlightAware Approximate
Sat 06:49:29 AM -33.9300 151.1710 316° Northwest 7 8  Level FlightAware ADS-B
Sat 06:49:59 AM -33.9300 151.1720 90° East 4 5 313 Level FlightAware ADS-B
Sat 06:50:39 AM -33.9360 151.1730 172° South 96 110 424 Level FlightAware ADS-B
Sat 06:51:09 AM -33.9590 151.1790 168° South 180 207 800 Level FlightAware ADS-B
Sat 06:51:24 AM -33.9720 151.1820 169° South 166 191 600 2,550 Climbing FlightAware ADS-B
Sat 06:51:49 AM -33.9910 151.1800 185° South 168 193 1,700 2,182 Climbing FlightAware ADS-B
Sat 06:52:19 AM -34.0150 151.1760 188° South 165 190 2,600 1,200 Climbing FlightAware ADS-B
Sat 06:52:59 AM -34.0480 151.1800 174° South 205 236 3,100 1,186 Climbing FlightAware ADS-B
Sat 06:53:45 AM -34.0930 151.1960 164° South 249 287 4,300 1,944 Climbing FlightAware ADS-B
Sat 06:54:10 AM -34.1260 151.2080 163° South 261 300 5,400 2,533 Climbing FlightAware ADS-B
Sat 06:54:30 AM -34.1480 151.2150 165° South 265 305 6,200 2,400 Climbing FlightAware ADS-B
Sat 06:54:40 AM -34.1600 151.2160 176° South 274 315 6,600 2,160 Climbing FlightAware ADS-B
Sat 06:54:55 AM -34.1810 151.2060 202° Southwest 286 329 7,100 2,700 Climbing FlightAware ADS-B
Sat 06:55:20 AM -34.1970 151.1750 238° Southwest 279 321 8,400 2,760 Climbing FlightAware ADS-B
Sat 06:55:45 AM -34.1920 151.1380 238° Southwest 281 323 9,400 3,097 Climbing FlightAware ADS-B
Sat 06:55:51 AM -34.1867 151.1278 238° Southwest 273 314 10,000 2,000 Climbing Aus ATC (RADAR)
Sat 06:56:15 AM -34.1620 151.1090 238° Southwest 294 338 10,400 1,920 Climbing FlightAware ADS-B
Sat 06:56:16 AM -34.1585 151.1064 238° Southwest 274 315 10,800 1,548 Climbing Aus ATC (RADAR)
Sat 06:56:46 AM -34.1213 151.0781 238° Southwest 304 350 11,200 545 Climbing Aus ATC (RADAR)
Sat 06:57:00 AM -34.1020 151.0630 238° Southwest 343 395 11,200 1,220 Level FlightAware ADS-B
Sat 06:57:45 AM -34.0390 151.0150 328° Northwest 367 422 12,400 1,906 Climbing FlightAware ADS-B
Sat 06:58:25 AM -33.9810 150.9740 330° Northwest 375 432 13,900 2,250 Climbing FlightAware ADS-B
Sat 06:59:05 AM -33.9160 150.9400 337° Northwest 383 441 15,400 2,325 Climbing FlightAware ADS-B
Sat 06:59:45 AM -33.8476 150.9048 337° Northwest 374 430 17,000 1,867 Climbing Aus ATC (RADAR)
Sat 06:59:50 AM -33.8440 150.9030 337° Northwest 392 451 16,800 1,800 Descending FlightAware ADS-B
Sat 07:00:25 AM -33.7798 150.8701 337° Northwest 385 443 18,200 1,773 Climbing Aus ATC (RADAR)
Sat 07:00:34 AM -33.7710 150.8650 337° Northwest 403 464 18,100 1,688 Descending FlightAware ADS-B
Sat 07:00:57 AM -33.7290 150.8440 337° Northwest 401 461 19,100 2,087 Climbing FlightAware ADS-B
Sat 07:01:43 AM -33.6480 150.8030 337° Northwest 409 471 20,500 2,154 Climbing FlightAware ADS-B
Sat 07:02:15 AM -33.5898 150.7696 337° Northwest 396 456 21,900 1,846 Climbing Aus ATC (RADAR)
Sat 07:02:22 AM -33.5820 150.7600 337° Northwest 414 476 21,700 1,154 Descending FlightAware ADS-B
Sat 07:03:07 AM -33.5190 150.6860 316° Northwest 420 483 22,900 1,553 Climbing FlightAware ADS-B
Sat 07:03:47 AM -33.4620 150.6200 316° Northwest 427 491 23,900 1,500 Climbing FlightAware ADS-B
Sat 07:04:27 AM -33.4050 150.5540 316° Northwest 432 497 24,900 1,425 Climbing FlightAware ADS-B
Sat 07:05:07 AM -33.3470 150.4870 316° Northwest 437 503 25,800 1,814 Climbing FlightAware ADS-B
Sat 07:05:10 AM -33.3426 150.4819 316° Northwest 420 483 26,200 1,737 Climbing Aus ATC (RADAR)
Sat 07:05:45 AM -33.2912 150.4230 316° Northwest 427 491 26,900 917 Climbing Aus ATC (RADAR)
Sat 07:06:22 AM -33.2280 150.3720 316° Northwest 445 512 27,300 1,114 Climbing FlightAware ADS-B
Sat 07:06:55 AM -33.1698 150.3298 316° Northwest 434 499 28,200 982 Climbing Aus ATC (RADAR)
Sat 07:07:17 AM -33.1330 150.3020 316° Northwest 453 521 28,200 900 Level FlightAware ADS-B
Sat 07:07:55 AM -33.0616 150.2506 316° Northwest 444 511 29,100 900 Climbing Aus ATC (RADAR)
Sat 07:07:57 AM -33.0570 150.2470 316° Northwest 458 527 28,800 1,029 Descending FlightAware ADS-B
Sat 07:08:30 AM -32.9982 150.2042 316° Northwest 447 514 29,700 1,082 Climbing Aus ATC (RADAR)
Sat 07:08:58 AM -32.9470 150.1680 316° Northwest 455 524 29,900 1,043 Climbing FlightAware ADS-B
Sat 07:09:39 AM -32.8740 150.1140 316° Northwest 455 524 30,900 2,000 Climbing FlightAware ADS-B
Sat 07:09:40 AM -32.8708 150.1121 316° Northwest 446 513 31,300 1,050 Climbing Aus ATC (RADAR)
Sat 07:10:19 AM -32.8020 150.0630 316° Northwest 453 521 31,600 1,050 Climbing FlightAware ADS-B
Sat 07:10:20 AM -32.7990 150.0605 316° Northwest 442 509 32,000 2,229 Climbing Aus ATC (RADAR)
Sat 07:10:54 AM -32.7369 150.0157 316° Northwest 435 501 32,900 923 Climbing Aus ATC (RADAR)
Sat 07:10:59 AM -32.7310 150.0110 316° Northwest 438 504 32,600 1,029 Descending FlightAware ADS-B
Sat 07:11:29 AM -32.6754 149.9712 316° Northwest 434 499 33,500 1,053 Climbing Aus ATC (RADAR)
Sat 07:11:56 AM -32.6350 149.9420 329° Northwest 435 501 33,600 1,029 Climbing FlightAware ADS-B
Sat 07:12:04 AM -32.6142 149.9275 329° Northwest 431 496 34,100 1,263 Climbing Aus ATC (RADAR)
Sat 07:12:34 AM -32.5613 149.8894 329° Northwest 433 498 34,400 171 Climbing Aus ATC (RADAR)
Sat 07:12:39 AM -32.5550 149.8850 329° Northwest 435 501 34,200 900 Descending FlightAware ADS-B
Sat 07:13:14 AM -32.4915 149.8393 329° Northwest 431 496 35,000 900 Climbing Aus ATC (RADAR)
Sat 07:13:19 AM -32.4850 149.8340 329° Northwest 432 497 34,800 686 Descending FlightAware ADS-B
Sat 07:13:49 AM -32.4328 149.7970 329° Northwest 437 503 35,400 439 Climbing Aus ATC (RADAR)
Sat 07:14:00 AM -32.4130 149.7830 329° Northwest 436 502 35,100 -107 Descending FlightAware ADS-B
Sat 07:14:45 AM -32.3310 149.7240 329° Northwest 450 518 35,300 400 Climbing FlightAware ADS-B
Sat 07:15:30 AM -32.2540 149.6690 329° Northwest 451 519 35,700 525 Climbing FlightAware ADS-B
Sat 07:16:05 AM -32.1900 149.6240 329° Northwest 438 504 36,000 522 Climbing FlightAware ADS-B
Sat 07:16:39 AM -32.1292 149.5809 329° Northwest 434 499 36,300  Climbing Aus ATC (RADAR)
Sat 07:16:50 AM -32.1160 149.5710 329° Northwest 431 496 36,000 -340 Descending FlightAware ADS-B
Sat 07:17:32 AM -32.0400 149.5170 329° Northwest 434 499 36,000  Level FlightAware ADS-B
Sat 07:18:13 AM -31.9710 149.4690 329° Northwest 431 496 36,000  Level FlightAware ADS-B
Sat 07:18:57 AM -31.8940 149.4140 329° Northwest 432 497 36,000 391 Level FlightAware ADS-B
Sat 07:18:59 AM -31.8886 149.4106 329° Northwest 425 489 36,300  Climbing Aus ATC (RADAR)
Sat 07:19:37 AM -31.8250 149.3660 329° Northwest 432 497 36,000 -154 Descending FlightAware ADS-B
Sat 07:19:38 AM -31.8220 149.3638 329° Northwest 432 497 36,200 486 Climbing Aus ATC (RADAR)
Sat 07:20:14 AM -31.7603 149.3204 329° Northwest 421 484 36,300 -273 Climbing Aus ATC (RADAR)
Sat 07:20:22 AM -31.7500 149.3130 329° Northwest 420 483 36,000 -375 Descending FlightAware ADS-B
Sat 07:21:02 AM -31.6810 149.2640 329° Northwest 418 481 36,000  Level FlightAware ADS-B
Sat 07:21:48 AM -31.6020 149.2090 329° Northwest 416 479 36,000  Level FlightAware ADS-B
Sat 07:22:29 AM -31.5350 149.1620 329° Northwest 415 478 36,000 240 Level FlightAware ADS-B
Sat 07:23:03 AM -31.4740 149.1199 329° Northwest 414 476 36,300  Climbing Aus ATC (RADAR)
Sat 07:23:08 AM -31.4680 149.1150 329° Northwest 413 475 36,000 -171 Descending FlightAware ADS-B
Sat 07:23:38 AM -31.4153 149.0788 329° Northwest 415 478 36,200  Climbing Aus ATC (RADAR)
Sat 07:23:54 AM -31.3910 149.0620 329° Northwest 412 474 36,000 -218 Descending FlightAware ADS-B
Sat 07:24:33 AM -31.3260 149.0160 329° Northwest 411 473 36,000  Level FlightAware ADS-B
Sat 07:25:09 AM -31.2660 148.9750 330° Northwest 416 479 36,000  Level FlightAware ADS-B
Sat 07:25:54 AM -31.1930 148.9240 330° Northwest 415 478 36,000 245 Level FlightAware ADS-B
Sat 07:25:58 AM -31.1830 148.9173 330° Northwest 409 471 36,200 308 Climbing Aus ATC (RADAR)
Sat 07:26:33 AM -31.1250 148.8775 330° Northwest 410 472 36,200 -293 Level Aus ATC (RADAR)
Sat 07:26:39 AM -31.1170 148.8710 330° Northwest 415 478 36,000 150 Descending FlightAware ADS-B
Sat 07:27:13 AM -31.0589 148.8317 330° Northwest 409 471 36,300  Climbing Aus ATC (RADAR)
Sat 07:27:20 AM -31.0490 148.8250 330° Northwest 414 476 36,000 -353 Descending FlightAware ADS-B
Sat 07:28:04 AM -30.9760 148.7740 329° Northwest 415 478 36,000  Level FlightAware ADS-B
Sat 07:28:45 AM -30.9100 148.7280 329° Northwest 415 478 36,000  Level FlightAware ADS-B
Sat 07:29:31 AM -30.8440 148.6820 329° Northwest 415 478 36,000  Level FlightAware ADS-B
Sat 07:29:50 AM -30.8040 148.6560 331° Northwest 414 476 36,000 269 Level FlightAware ADS-B
Sat 07:30:38 AM -30.7203 148.5992 331° Northwest 407 468 36,300 136 Climbing Aus ATC (RADAR)
Sat 07:31:18 AM -30.6543 148.5539 329° Northwest 407 468 36,200 -80 Descending Aus ATC (RADAR)
Sat 07:31:53 AM -30.5970 148.5147 329° Northwest 406 467 36,200 67 Level Aus ATC (RADAR)
Sat 07:32:47 AM -30.5072 148.4536 330° Northwest 404 465 36,300 64 Climbing Aus ATC (RADAR)
Sat 07:33:27 AM -30.4422 148.4095 330° Northwest 402 463 36,300  Level Aus ATC (RADAR)
Sat 07:34:03 AM -30.3860 148.3709 329° Northwest 399 459 36,300 -257 Level Aus ATC (RADAR)
Sat 07:34:37 AM -30.4130 148.3830 329° Northwest 413 475 36,000  Descending FlightAware ADS-B
Sat 07:35:12 AM -30.2739 148.2944 329° Northwest 397 457 36,300 257 Climbing Aus ATC (RADAR)
Sat 07:35:47 AM -30.2171 148.2567 330° Northwest 398 458 36,300  Level Aus ATC (RADAR)
Sat 07:36:27 AM -30.1530 148.2129 329° Northwest 398 458 36,300  Level Aus ATC (RADAR)
Sat 07:36:57 AM -30.1043 148.1804 330° Northwest 399 459 36,300  Level Aus ATC (RADAR)
Sat 07:37:32 AM -30.0491 148.1421 329° Northwest 396 456 36,300  Level Aus ATC (RADAR)
Sat 07:38:07 AM -29.9935 148.1029 329° Northwest 399 459 36,300  Level Aus ATC (RADAR)
Sat 07:38:42 AM -29.9447 148.0581 322° Northwest 390 449 36,300  Level Aus ATC (RADAR)
Sat 07:39:17 AM -29.8945 148.0147 323° Northwest 385 443 36,300  Level Aus ATC (RADAR)
Sat 07:39:52 AM -29.8458 147.9709 322° Northwest 382 440 36,300 -514 Level Aus ATC (RADAR)
Sat 07:39:52 AM -29.9740 148.0790 322° Northwest 413 475 36,000  Descending FlightAware ADS-B
Sat 07:40:27 AM -29.7969 147.9272 322° Northwest 380 437 36,300 240 Climbing Aus ATC (RADAR)
Sat 07:41:07 AM -29.7406 147.8774 322° Northwest 380 437 36,300  Level Aus ATC (RADAR)
Sat 07:41:42 AM -29.6901 147.8340 323° Northwest 381 438 36,300  Level Aus ATC (RADAR)
Sat 07:42:42 AM -29.6049 147.7607 323° Northwest 380 437 36,300  Level Aus ATC (RADAR)
Sat 07:43:21 AM -29.5516 147.7129 322° Northwest 379 436 36,300  Level Aus ATC (RADAR)
Sat 07:43:52 AM -29.5070 147.6760 324° Northwest 374 430 36,300  Level Aus ATC (RADAR)
Sat 07:44:27 AM -29.4572 147.6351 324° Northwest 374 430 36,300  Level Aus ATC (RADAR)
Sat 07:45:02 AM -29.4088 147.5938 323° Northwest 371 427 36,300  Level Aus ATC (RADAR)
Sat 07:45:36 AM -29.3603 147.5527 324° Northwest 370 426 36,300  Level Aus ATC (RADAR)
Sat 07:46:15 AM -29.3084 147.5068 322° Northwest 368 423 36,300  Level Aus ATC (RADAR)
Sat 07:46:46 AM -29.2655 147.4714 324° Northwest 363 418 36,300  Level Aus ATC (RADAR)
Sat 07:47:21 AM -29.2187 147.4308 323° Northwest 361 415 36,300  Level Aus ATC (RADAR)
Sat 07:48:01 AM -29.1656 147.3841 322° Northwest 360 414 36,300  Level Aus ATC (RADAR)
Sat 07:48:35 AM -29.1210 147.3448 322° Northwest 362 417 36,300  Level Aus ATC (RADAR)
Sat 07:49:06 AM -29.0750 147.3123 328° Northwest 361 415 36,300  Level Aus ATC (RADAR)
Sat 07:49:36 AM -29.0349 147.2784 324° Northwest 360 414 36,300 -13 Level Aus ATC (RADAR)
Sat 07:55:11 AM -28.5661 146.8822 324° Northwest 36,000 -13 Descending Aus ATC (Calculated)
Sat 07:57:00 AM -28.3676 146.7830 323° Northwest  Level Estimated
Sat 07:58:00 AM -28.2738 146.6993 322° Northwest  Level FlightAware Approximate
Sat 07:59:00 AM -28.1799 146.6158 322° Northwest  Level FlightAware Approximate
Sat 08:00:00 AM -28.0859 146.5324 322° Northwest  Level FlightAware Approximate
Sat 08:00:10 AM -28.1255 146.5140 324° Northwest 36,000  Level Aus ATC (Calculated)
Sat 08:02:00 AM -27.9490 146.3676 324° Northwest  Level FlightAware Approximate
Sat 08:03:00 AM -27.8527 146.2880 324° Northwest  Level FlightAware Approximate
Sat 08:04:00 AM -27.7563 146.2085 324° Northwest  Level FlightAware Approximate
Sat 08:05:00 AM -27.6599 146.1291 324° Northwest  Level FlightAware Approximate
Sat 08:05:10 AM -27.7005 146.1625 324° Northwest 36,000  Level Aus ATC (Calculated)
Sat 08:07:00 AM -27.5236 146.0172 324° Northwest  Level FlightAware Approximate
Sat 08:08:00 AM -27.4271 145.9382 324° Northwest  Level FlightAware Approximate
Sat 08:09:00 AM -27.3305 145.8593 324° Northwest  Level FlightAware Approximate
Sat 08:10:00 AM -27.2339 145.7805 324° Northwest  Level FlightAware Approximate
Sat 08:10:09 AM -27.2213 145.7703 324° Northwest 36,000  Level Aus ATC (Calculated)
Sat 08:11:58 AM -27.1850 145.7410 324° Northwest 383 441 36,000  Level FlightAware ADS-B
Sat 08:12:00 AM -27.0424 145.6250 324° Northwest  Level FlightAware Approximate
Sat 08:12:09 AM -27.0786 145.6545 144° Southeast 36,000  Level Aus ATC (Calculated)
Sat 08:12:46 AM -27.1050 145.6760 324° Northwest 382 440 36,000  Level FlightAware ADS-B
Sat 08:13:24 AM -27.0590 145.6380 324° Northwest 382 440 36,000  Level FlightAware ADS-B
Sat 08:14:02 AM -27.0130 145.6010 324° Northwest 382 440 36,000  Level FlightAware ADS-B
Sat 08:14:48 AM -26.9570 145.5550 324° Northwest 382 440 36,000  Level FlightAware ADS-B
Sat 08:15:38 AM -26.7078 145.3559 324° Northwest 36,000  Level Aus ATC (Calculated)
Sat 08:17:00 AM -26.5752 145.2496 324° Northwest  Level FlightAware Approximate
Sat 08:17:04 AM -26.6335 145.2963 324° Northwest 36,000  Level Aus ATC (Calculated)
Sat 08:19:00 AM -26.4459 145.1464 324° Northwest  Level FlightAware Approximate
Sat 08:20:00 AM -26.3488 145.0690 324° Northwest  Level FlightAware Approximate
Sat 08:20:00 AM -26.3363 145.0591 324° Northwest 36,000  Level Aus ATC (Calculated)
Sat 08:21:00 AM -26.2391 144.9819 325° Northwest  Level FlightAware Approximate
Sat 08:22:00 AM -26.1419 144.9048 325° Northwest  Level FlightAware Approximate
Sat 08:22:03 AM -26.1131 144.8819 145° Southeast 36,000  Level Aus ATC (Calculated)
Sat 08:23:22 AM -26.1720 144.9280 325° Northwest 394 453 36,000  Level FlightAware ADS-B
Sat 08:24:07 AM -26.0920 144.8650 325° Northwest 392 451 36,000  Level FlightAware ADS-B
Sat 08:24:42 AM -26.0390 144.8230 325° Northwest 394 453 36,000  Level FlightAware ADS-B
Sat 08:25:22 AM -25.9780 144.7750 325° Northwest 394 453 36,000  Level FlightAware ADS-B
Sat 08:25:33 AM -25.8050 144.6387 145° Southeast 36,000  Level Aus ATC (Calculated)
Sat 08:26:07 AM -25.9130 144.7230 325° Northwest 394 453 36,000  Level FlightAware ADS-B
Sat 08:26:55 AM -25.8410 144.6670 325° Northwest 393 452 36,000  Level FlightAware ADS-B
Sat 08:27:35 AM -25.7800 144.6190 325° Northwest 394 453 36,000  Level FlightAware ADS-B
Sat 08:28:16 AM -25.7210 144.5720 324° Northwest 396 456 36,000  Level FlightAware ADS-B
Sat 08:29:00 AM -25.6540 144.5200 325° Northwest 398 458 36,000  Level FlightAware ADS-B
Sat 08:29:40 AM -25.5930 144.4720 325° Northwest 399 459 36,000  Level FlightAware ADS-B
Sat 08:30:15 AM -25.5480 144.4370 325° Northwest 400 460 36,000  Level FlightAware ADS-B
Sat 08:30:28 AM -25.3798 144.3058 325° Northwest 36,000  Level Aus ATC (Calculated)
Sat 08:33:00 AM -25.2798 144.2278 325° Northwest  Level FlightAware Approximate
Sat 08:34:00 AM -25.1822 144.1519 325° Northwest  Level FlightAware Approximate
Sat 08:34:58 AM -25.1310 144.1120 325° Northwest 402 463 36,000  Level FlightAware ADS-B
Sat 08:35:00 AM -25.0845 144.0762 325° Northwest  Level FlightAware Approximate
Sat 08:35:27 AM -24.9005 143.9339 145° Southeast 36,000  Level Aus ATC (Calculated)
Sat 08:35:38 AM -25.0480 144.0480 325° Northwest 402 463 36,000  Level FlightAware ADS-B
Sat 08:36:21 AM -24.9840 143.9980 325° Northwest 402 463 36,000  Level FlightAware ADS-B
Sat 08:37:04 AM -24.9170 143.9470 325° Northwest 403 464 36,000  Level FlightAware ADS-B
Sat 08:37:44 AM -24.8560 143.8990 324° Northwest 403 464 36,000  Level FlightAware ADS-B
Sat 08:38:21 AM -24.8000 143.8560 325° Northwest 403 464 36,000  Level FlightAware ADS-B
Sat 08:39:01 AM -24.7390 143.8090 325° Northwest 402 463 36,000  Level FlightAware ADS-B
Sat 08:39:49 AM -24.6650 143.7530 325° Northwest 402 463 36,000  Level FlightAware ADS-B
Sat 08:40:27 AM -24.4203 143.5650 145° Southeast 36,000  Level Aus ATC (Calculated)
Sat 08:40:33 AM -24.5980 143.7010 325° Northwest 404 465 36,000  Level FlightAware ADS-B
Sat 08:41:10 AM -24.5400 143.6570 325° Northwest 405 466 36,000  Level FlightAware ADS-B
Sat 08:41:58 AM -24.4660 143.6000 325° Northwest 406 467 36,000  Level FlightAware ADS-B
Sat 08:42:38 AM -24.4040 143.5530 325° Northwest 406 467 36,000  Level FlightAware ADS-B
Sat 08:43:22 AM -24.3370 143.5010 325° Northwest 407 468 36,000  Level FlightAware ADS-B
Sat 08:44:03 AM -24.2740 143.4530 325° Northwest 407 468 36,000  Level FlightAware ADS-B
Sat 08:44:11 AM -24.0498 143.2827 145° Southeast 36,000  Level Aus ATC (Calculated)
Sat 08:44:42 AM -24.2120 143.4060 325° Northwest 407 468 36,000  Level FlightAware ADS-B
Sat 08:47:00 AM -23.9865 143.2347 325° Northwest  Level FlightAware Approximate
Sat 08:48:00 AM -23.8884 143.1604 325° Northwest  Level FlightAware Approximate
Sat 08:49:00 AM -23.7903 143.0862 325° Northwest  Level FlightAware Approximate
Sat 08:49:06 AM -23.5586 142.9116 146° Southeast 36,000  Level Aus ATC (Calculated)
Sat 08:49:46 AM -23.7500 143.0550 325° Northwest 408 470 36,000  Level FlightAware ADS-B
Sat 08:50:29 AM -23.6740 142.9980 326° Northwest 410 472 36,000  Level FlightAware ADS-B
Sat 08:51:21 AM -23.5920 142.9360 325° Northwest 411 473 36,000  Level FlightAware ADS-B
Sat 08:53:09 AM -23.4220 142.8090 326° Northwest 411 473 36,000  Level FlightAware ADS-B
Sat 08:53:58 AM -23.3450 142.7520 326° Northwest 411 473 36,000  Level FlightAware ADS-B
Sat 08:54:05 AM -23.0665 142.5432 145° Southeast 36,000  Level Aus ATC (Calculated)
Sat 08:54:05 AM -23.0665 142.5432 145° Southeast 36,000  Level Aus ATC (Calculated)
Sat 08:54:40 AM -23.2800 142.7030 326° Northwest 411 473 36,000  Level FlightAware ADS-B
Sat 08:56:18 AM -23.1250 142.5870 325° Northwest 412 474 36,000  Level FlightAware ADS-B
Sat 08:57:00 AM -23.0590 142.5380 326° Northwest 413 475 36,000  Level FlightAware ADS-B
Sat 08:57:40 AM -22.9960 142.4910 326° Northwest 413 475 36,000  Level FlightAware ADS-B
Sat 08:58:23 AM -22.9270 142.4400 326° Northwest 412 474 36,000  Level FlightAware ADS-B
Sat 08:59:05 AM -22.5735 142.1774 146° Southeast 36,000  Level Aus ATC (Calculated)
Sat 08:59:08 AM -22.8570 142.3870 325° Northwest 412 474 36,000  Level FlightAware ADS-B
Sat 08:59:49 AM -22.7920 142.3390 325° Northwest 414 476 36,000  Level FlightAware ADS-B
Sat 09:00:18 AM -22.5030 142.1254 326° Northwest 36,000  Level Aus ATC (Calculated)
Sat 09:02:00 AM -22.3353 142.0019 326° Northwest  Level FlightAware Approximate
Sat 09:02:35 AM -22.2208 141.9178 146° Southeast 36,000  Level Aus ATC (Calculated)
Sat 09:03:00 AM -22.2367 141.9294 326° Northwest  Level FlightAware Approximate
Sat 09:03:29 AM -22.4590 142.0930 326° Northwest 421 484 36,000  Level FlightAware ADS-B
Sat 09:04:00 AM -22.0810 141.8153 326° Northwest  Level FlightAware Approximate
Sat 09:04:18 AM -22.0796 141.8143 146° Southeast 36,000  Level Aus ATC (Calculated)
Sat 09:04:51 AM -22.3220 141.9920 326° Northwest 422 486 36,000  Level FlightAware ADS-B
Sat 09:06:57 AM -22.1180 141.8430 339° North 422 486 36,000  Level FlightAware ADS-B
Sat 09:07:00 AM -21.7779 141.6925 339° North  Level Estimated
Sat 09:07:53 AM -22.0370 141.7820 325° Northwest 422 486 36,000  Level FlightAware ADS-B
Sat 09:07:59 AM -21.7134 141.5470 146° Southeast 36,000  Level Aus ATC (Calculated)
Sat 09:08:34 AM -21.9460 141.7170 325° Northwest 423 487 36,000  Level FlightAware ADS-B
Sat 09:09:10 AM -21.8870 141.6740 326° Northwest 424 488 36,000  Level FlightAware ADS-B
Sat 09:09:17 AM -21.5359 141.4181 146° Southeast 36,000  Level Aus ATC (Calculated)
Sat 09:09:56 AM -21.8130 141.6190 326° Northwest 424 488 36,000  Level FlightAware ADS-B
Sat 09:11:08 AM -21.6960 141.5340 326° Northwest 423 487 36,000  Level FlightAware ADS-B
Sat 09:12:05 AM -21.6040 141.4670 326° Northwest 421 484 36,000  Level FlightAware ADS-B
Sat 09:12:33 AM -21.5600 141.4360 327° Northwest 421 484 36,000  Level FlightAware ADS-B
Sat 09:12:54 AM -21.1806 141.1612 146° Southeast 36,000  Level Aus ATC (Calculated)
Sat 09:13:04 AM -21.5090 141.3990 326° Northwest 421 484 36,000  Level FlightAware ADS-B
Sat 09:13:50 AM -21.4350 141.3450 326° Northwest 422 486 36,000  Level FlightAware ADS-B
Sat 09:14:30 AM -21.3690 141.2970 326° Northwest 422 486 36,000  Level FlightAware ADS-B
Sat 09:14:55 AM -21.3290 141.2680 326° Northwest 422 486 36,000  Level FlightAware ADS-B
Sat 09:15:22 AM -21.2840 141.2360 326° Northwest 422 486 36,000  Level FlightAware ADS-B
Sat 09:16:53 AM -21.1580 141.1420 325° Northwest 422 486 36,000 286 Level FlightAware ADS-B
Sat 09:17:53 AM -20.6469 140.7781 146° Southeast 36,000 383 Level Aus ATC (Calculated)
Sat 09:18:43 AM -20.5875 140.7357 146° Southeast 36,000 495 Level Aus ATC (Calculated)
Sat 09:19:00 AM -20.5361 140.6990 326° Northwest  Level FlightAware Approximate
Sat 09:20:00 AM -20.4602 140.6449 326° Northwest  Level FlightAware Approximate
Sat 09:21:00 AM -20.3610 140.5742 326° Northwest  Level FlightAware Approximate
Sat 09:21:19 AM -20.7290 140.8370 326° Northwest 415 478 37,700  Level FlightAware ADS-B
Sat 09:21:38 AM -20.2312 140.4820 146° Southeast 36,000 514 Descending Aus ATC (Calculated)
Sat 09:21:54 AM -20.6480 140.7790 326° Northwest 418 481 38,000 1,846 Climbing FlightAware ADS-B
Sat 09:22:43 AM -20.5700 140.7230 326° Northwest 420 483 38,000  Level FlightAware ADS-B
Sat 09:23:22 AM -20.5070 140.6780 326° Northwest 420 483 38,000  Level FlightAware ADS-B
Sat 09:23:58 AM -19.9946 140.3020 145° Southeast 36,000  Descending Aus ATC (Calculated)
Sat 09:24:02 AM -20.4410 140.6310 326° Northwest 421 484 38,000 2,449 Climbing FlightAware ADS-B
Sat 09:24:47 AM -20.3680 140.5790 326° Northwest 422 486 38,000  Level FlightAware ADS-B
Sat 09:25:44 AM -20.2740 140.5130 327° Northwest 422 486 38,000  Level FlightAware ADS-B
Sat 09:26:02 AM -19.8179 140.1587 144° Southeast 36,000  Descending Aus ATC (Calculated)
Sat 09:26:25 AM -20.2090 140.4660 326° Northwest 421 484 38,000 1,791 Climbing FlightAware ADS-B
Sat 09:27:09 AM -20.1370 140.4150 326° Northwest 421 484 38,000  Level FlightAware ADS-B
Sat 09:27:27 AM -19.6411 140.0157 143° Southeast 36,000  Descending Aus ATC (Calculated)
Sat 09:27:48 AM -20.0740 140.3670 326° Northwest 417 480 38,000 1,935 Climbing FlightAware ADS-B
Sat 09:28:29 AM -20.0120 140.3160 322° Northwest 418 481 38,000  Level FlightAware ADS-B
Sat 09:29:14 AM -19.9420 140.2600 323° Northwest 420 483 38,000  Level FlightAware ADS-B
Sat 09:29:53 AM -19.8830 140.2110 322° Northwest 420 483 38,000  Level FlightAware ADS-B
Sat 09:32:27 AM -19.1690 139.6359 143° Southeast 36,000  Descending Aus ATC (Calculated)
Sat 09:33:00 AM -19.5871 139.9717 323° Northwest  Level FlightAware Approximate
Sat 09:34:00 AM -19.0215 139.5178 323° Northwest  Level FlightAware Approximate
Sat 09:34:43 AM -19.4500 139.8610 323° Northwest 427 491 38,000  Level FlightAware ADS-B
Sat 09:35:30 AM -19.3660 139.7940 323° Northwest 427 491 38,000  Level FlightAware ADS-B
Sat 09:36:03 AM -19.3010 139.7420 323° Northwest 428 493 38,000  Level FlightAware ADS-B
Sat 09:36:45 AM -19.2350 139.6890 323° Northwest 429 494 38,000  Level FlightAware ADS-B
Sat 09:37:27 AM -18.6961 139.2582 143° Southeast 36,000  Descending Aus ATC (Calculated)
Sat 09:37:35 AM -19.1550 139.6250 323° Northwest 431 496 38,000 2,609 Climbing FlightAware ADS-B
Sat 09:38:13 AM -19.0940 139.5760 323° Northwest 431 496 38,000  Level FlightAware ADS-B
Sat 09:39:13 AM -18.9980 139.4990 323° Northwest 433 498 38,000  Level FlightAware ADS-B
Sat 09:39:47 AM -18.9460 139.4580 323° Northwest 434 499 38,000  Level FlightAware ADS-B
Sat 09:40:28 AM -18.8790 139.4040 323° Northwest 435 501 38,000  Level FlightAware ADS-B
Sat 09:41:24 AM -18.7880 139.3310 323° Northwest 435 501 38,000  Level FlightAware ADS-B
Sat 09:42:16 AM -18.7140 139.2710 322° Northwest 435 501 38,000  Level FlightAware ADS-B
Sat 09:42:26 AM -18.1779 138.8475 143° Southeast 36,000  Descending Aus ATC (Calculated)
Sat 09:42:48 AM -18.1335 138.8124 143° Southeast 36,000 3,871 Level Aus ATC (Calculated)
Sat 09:42:57 AM -18.6370 139.2110 322° Northwest 434 499 38,000 3,158 Climbing FlightAware ADS-B
Sat 09:43:26 AM -18.5920 139.1750 323° Northwest 432 497 38,000  Level FlightAware ADS-B
Sat 09:44:07 AM -18.5260 139.1230 323° Northwest 431 496 38,000  Level FlightAware ADS-B
Sat 09:44:45 AM -18.4650 139.0740 323° Northwest 431 496 38,000  Level FlightAware ADS-B
Sat 09:44:55 AM -18.4480 139.0620 326° Northwest 431 496 38,000  Level FlightAware ADS-B
Sat 09:47:21 AM -17.6438 138.4274 143° Southeast 36,000  Descending Aus ATC (Calculated)
Sat 09:48:10 AM -18.1460 138.8220 326° Northwest 438 504 38,000 1,429 Climbing FlightAware ADS-B
Sat 09:48:45 AM -18.0780 138.7680 323° Northwest 439 505 38,000  Level FlightAware ADS-B
Sat 09:49:33 AM -18.0000 138.7070 323° Northwest 439 505 38,000  Level FlightAware ADS-B
Sat 09:51:24 AM -17.8290 138.5720 323° Northwest 439 505 38,000  Level FlightAware ADS-B
Sat 09:52:00 AM -17.7790 138.5330 323° Northwest 439 505 38,000  Level FlightAware ADS-B
Sat 09:52:15 AM -17.1534 138.0445 143° Southeast 36,000  Descending Aus ATC (Calculated)
Sat 09:53:01 AM -17.6950 138.4660 323° Northwest 439 505 38,000 1,200 Climbing FlightAware ADS-B
Sat 09:53:55 AM -17.6200 138.4070 323° Northwest 439 505 38,000  Level FlightAware ADS-B
Sat 09:54:20 AM -16.9302 137.8712 144° Southeast 36,000  Descending Aus ATC (Calculated)
Sat 09:54:44 AM -17.5530 138.3540 323° Northwest 439 505 38,000 1,429 Climbing FlightAware ADS-B
Sat 09:55:44 AM -17.4700 138.2890 323° Northwest 439 505 38,000  Level FlightAware ADS-B
Sat 09:56:29 AM -17.4080 138.2400 323° Northwest 439 505 38,000  Level FlightAware ADS-B
Sat 09:57:15 AM -16.6175 137.6291 144° Southeast 36,000  Descending Aus ATC (Calculated)
Sat 09:57:30 AM -17.3240 138.1730 323° Northwest 439 505 38,000 2,264 Climbing FlightAware ADS-B
Sat 09:58:08 AM -17.2720 138.1320 323° Northwest 439 505 38,000  Level FlightAware ADS-B
Sat 09:58:57 AM -17.2040 138.0790 323° Northwest 439 505 38,000  Level FlightAware ADS-B
Sat 09:59:33 AM -17.1540 138.0390 323° Northwest 439 505 38,000  Level FlightAware ADS-B
Sat 10:00:45 AM -17.0550 137.9610 323° Northwest 439 505 38,000 Level FlightAware ADS-B
Sat 10:02:14 AM -16.0808 137.2160 323° Northwest 36,000 Descending Aus ATC (Calculated)
Sat 10:04:00 AM -15.9111 137.0859 324° Northwest  Level FlightAware Approximate
Sat 10:05:00 AM -15.8150 137.0124 324° Northwest  Level FlightAware Approximate
Sat 10:06:00 AM -15.7189 136.9389 324° Northwest  Level FlightAware Approximate
Sat 10:07:00 AM -15.6227 136.8656 324° Northwest  Level FlightAware Approximate
Sat 10:07:19 AM -15.5433 136.8050 324° Northwest 36,000  Level Aus ATC (Calculated)
Sat 10:09:00 AM -15.3813 136.6817 324° Northwest  Level FlightAware Approximate
Sat 10:09:24 AM -15.3195 136.6348 323° Northwest 36,000  Level Aus ATC (Calculated)
Sat 10:10:56 AM -15.1863 136.5336 323° Northwest 36,000 190 Level Aus ATC (Calculated)
Sat 10:12:00 AM -15.2890 136.6116 144° Southeast  Level FlightAware Approximate
Sat 10:13:00 AM -15.3852 136.6847 144° Southeast  Level FlightAware Approximate
Sat 10:14:00 AM -15.2890 136.6116 324° Northwest  Level FlightAware Approximate
Sat 10:14:18 AM -14.8308 136.2646 145° Southeast 36,000  Level Aus ATC (Calculated)
Sat 10:15:00 AM -15.3852 136.6847 144° Southeast  Level FlightAware Approximate
Sat 10:16:00 AM -14.9946 136.3884 144° Southeast  Level FlightAware Approximate
Sat 10:16:18 AM -14.6085 136.0969 144° Southeast 36,000  Level Aus ATC (Calculated)
Sat 10:17:00 AM -15.0909 136.4613 144° Southeast  Level FlightAware Approximate
Sat 10:18:00 AM -14.7724 136.2204 144° Southeast  Level FlightAware Approximate
Sat 10:19:00 AM -14.8687 136.2932 144° Southeast  Level FlightAware Approximate
Sat 10:20:00 AM -14.9651 136.3661 144° Southeast  Level FlightAware Approximate
Sat 10:20:28 AM -14.9517 136.3524 144° Southeast 486 559 38,100  Level Aus ATC (RADAR)
Sat 10:22:32 AM -14.7418 136.1940 324° Northwest 450 518 38,100  Level Aus ATC (RADAR)
Sat 10:23:37 AM -14.6338 136.1126 324° Northwest 441 507 38,100  Level Aus ATC (RADAR)
Sat 10:24:42 AM -14.5284 136.0292 323° Northwest 445 512 38,100  Level Aus ATC (RADAR)
Sat 10:25:42 AM -14.4254 135.9552 325° Northwest 442 509 38,100  Level Aus ATC (RADAR)
Sat 10:26:47 AM -14.3171 135.8737 324° Northwest 441 507 38,100  Level Aus ATC (RADAR)
Sat 10:27:52 AM -14.2091 135.7917 324° Northwest 441 507 38,100  Level Aus ATC (RADAR)
Sat 10:29:02 AM -14.0923 135.7041 324° Northwest 442 509 38,100  Level Aus ATC (RADAR)
Sat 10:30:07 AM -13.9813 135.6224 324° Northwest 445 512 38,100  Level Aus ATC (RADAR)
Sat 10:31:07 AM -13.8790 135.5462 324° Northwest 446 513 38,100  Level Aus ATC (RADAR)
Sat 10:32:12 AM -13.7673 135.4633 324° Northwest 449 517 38,100  Level Aus ATC (RADAR)
Sat 10:33:16 AM -13.6567 135.3814 324° Northwest 446 513 38,100  Level Aus ATC (RADAR)
Sat 10:34:16 AM -13.5537 135.3051 324° Northwest 449 517 38,100  Level Aus ATC (RADAR)
Sat 10:35:21 AM -13.4441 135.2239 324° Northwest 443 510 38,100  Level Aus ATC (RADAR)
Sat 10:36:21 AM -13.3429 135.1485 324° Northwest 442 509 38,100  Level Aus ATC (RADAR)
Sat 10:37:26 AM -13.2337 135.0679 324° Northwest 439 505 38,100  Level Aus ATC (RADAR)
Sat 10:38:31 AM -13.1178 134.9833 325° Northwest 453 521 38,100  Level Aus ATC (RADAR)
Sat 10:39:31 AM -13.0178 134.9093 324° Northwest 439 505 38,100  Level Aus ATC (RADAR)
Sat 10:40:36 AM -12.9084 134.8285 324° Northwest 442 509 38,100  Level Aus ATC (RADAR)
Sat 10:41:41 AM -12.7987 134.7479 324° Northwest 440 506 38,100  Level Aus ATC (RADAR)
Sat 10:42:41 AM -12.6958 134.6715 324° Northwest 445 512 38,100  Level Aus ATC (RADAR)
Sat 10:43:40 AM -12.5932 134.5960 324° Northwest 447 514 38,100  Level Aus ATC (RADAR)
Sat 10:44:50 AM -12.4731 134.5073 324° Northwest 448 516 38,100  Level Aus ATC (RADAR)
Sat 10:45:50 AM -12.3706 134.4312 324° Northwest 448 516 38,100 -76 Level Aus ATC (RADAR)
Sat 10:46:09 AM -12.3410 134.4090 324° Northwest 459 528 38,000 -102 Descending FlightAware ADS-B
Sat 10:46:49 AM -12.2710 134.3580 325° Northwest 456 525 38,000 130 Level FlightAware ADS-B
Sat 10:46:55 AM -12.2579 134.3488 324° Northwest 448 516 38,100  Climbing Aus ATC (RADAR)
Sat 10:47:14 AM -12.2290 134.3270 324° Northwest 456 525 38,000 -94 Descending FlightAware ADS-B
Sat 10:47:59 AM -12.1500 134.2690 324° Northwest 454 522 38,000 130 Level FlightAware ADS-B
Sat 10:48:00 AM -12.1453 134.2667 324° Northwest 450 518 38,100  Climbing Aus ATC (RADAR)
Sat 10:48:58 AM -12.0500 134.1960 324° Northwest 454 522 38,000 -61 Descending FlightAware ADS-B
Sat 10:49:38 AM -11.9820 134.1460 324° Northwest 454 522 38,000  Level FlightAware ADS-B
Sat 10:51:03 AM -11.8360 134.0390 324° Northwest 453 521 38,000  Level FlightAware ADS-B
Sat 10:51:43 AM -11.7660 133.9870 324° Northwest 454 522 38,000  Level FlightAware ADS-B
Sat 10:52:15 AM -11.7096 133.9467 324° Northwest 444 511 38,000  Level Aus ATC (RADAR)
Sat 10:52:28 AM -11.6920 133.9330 324° Northwest 454 522 38,000  Level FlightAware ADS-B
Sat 10:53:08 AM -11.6220 133.8820 324° Northwest 454 522 38,000  Level FlightAware ADS-B
Sat 10:53:15 AM -11.6065 133.8717 324° Northwest 446 513 38,000  Level Aus ATC (RADAR)
Sat 10:54:03 AM -11.5270 133.8130 325° Northwest 454 522 38,000  Level FlightAware ADS-B
Sat 10:54:48 AM -11.4500 133.7570 325° Northwest 458 527 38,000  Level FlightAware ADS-B
Sat 10:55:20 AM -11.3922 133.7147 325° Northwest 445 512 38,000  Level Aus ATC (RADAR)
Sat 10:55:38 AM -11.3620 133.6920 325° Northwest 456 525 38,000  Level FlightAware ADS-B
Sat 10:56:23 AM -11.2830 133.6350 325° Northwest 456 525 38,000 128 Level FlightAware ADS-B
Sat 10:56:25 AM -11.2798 133.6324 325° Northwest 447 514 38,100  Climbing Aus ATC (RADAR)
Sat 10:57:08 AM -11.2070 133.5800 325° Northwest 456 525 38,000 -72 Descending FlightAware ADS-B
Sat 10:57:48 AM -11.1370 133.5290 324° Northwest 456 525 38,000 74 Level FlightAware ADS-B
Sat 10:58:29 AM -11.0599 133.4727 324° Northwest 452 520 38,100  Climbing Aus ATC (RADAR)
Sat 10:58:33 AM -11.0590 133.4720 324° Northwest 455 524 38,000 -136 Descending FlightAware ADS-B
Sat 10:59:13 AM -10.9860 133.4190 325° Northwest 455 524 38,000  Level FlightAware ADS-B
Sat 10:59:44 AM -10.9298 133.3780 325° Northwest 447 514 38,000  Level Aus ATC (RADAR)
Sat 10:59:53 AM -10.9160 133.3680 325° Northwest 460 529 38,000  Level FlightAware ADS-B
Sat 11:00:38 AM -10.8400 133.3130 325° Northwest 460 529 38,000  Level FlightAware ADS-B
Sat 11:01:23 AM -10.7620 133.2560 324° Northwest 459 528 38,000  Level FlightAware ADS-B
Sat 11:01:58 AM -10.7000 133.2120 325° Northwest 459 528 38,000  Level FlightAware ADS-B
Sat 11:02:43 AM -10.6210 133.1540 324° Northwest 460 529 38,000  Level FlightAware ADS-B
Sat 11:03:28 AM -10.5430 133.0980 325° Northwest 454 522 38,000  Level FlightAware ADS-B
Sat 11:04:08 AM -10.4730 133.0470 324° Northwest 455 524 38,000  Level FlightAware ADS-B
Sat 11:04:38 AM -10.4220 133.0100 324° Northwest 455 524 38,000 91 Level FlightAware ADS-B
Sat 11:05:14 AM -10.3565 132.9621 324° Northwest 449 517 38,100  Climbing Aus ATC (RADAR)
Sat 11:05:18 AM -10.3520 132.9600 324° Northwest 457 526 38,000 -136 Descending FlightAware ADS-B
Sat 11:05:58 AM -10.2820 132.9090 324° Northwest 458 527 38,000  Level FlightAware ADS-B
Sat 11:06:28 AM -10.2290 132.8710 325° Northwest 458 527 38,000  Level FlightAware ADS-B
Sat 11:07:09 AM -10.1570 132.8190 325° Northwest 456 525 38,000  Level FlightAware ADS-B
Sat 11:07:53 AM -10.0800 132.7630 324° Northwest 456 525 38,000  Level FlightAware ADS-B
Sat 11:08:28 AM -10.0180 132.7180 324° Northwest 456 525 38,000  Level FlightAware ADS-B
Sat 11:08:33 AM -10.0061 132.7087 324° Northwest 454 522 38,000  Level Aus ATC (RADAR)
Sat 11:09:13 AM -9.9400 132.6620 325° Northwest 455 524 38,000  Level FlightAware ADS-B
Sat 11:09:58 AM -9.8640 132.6070 325° Northwest 453 521 38,000  Level FlightAware ADS-B
Sat 11:10:43 AM -9.7827 132.5446 325° Northwest 440 506 38,000  Level Aus ATC (RADAR)
Sat 11:10:54 AM -9.7770 132.5410 325° Northwest 453 521 38,000 86 Level FlightAware ADS-B
Sat 11:11:53 AM -9.6794 132.4321 325° Northwest 448 516 38,100  Climbing Aus ATC (RADAR)
Sat 11:12:32 AM -9.6410 132.4290 325° Northwest 453 521 38,000 -63 Descending FlightAware ADS-B
Sat 11:13:28 AM -9.5410 132.2860 305° West 455 524 38,000 70 Level FlightAware ADS-B
Sat 11:13:58 AM -9.4973 132.2394 305° West 440 506 38,100  Climbing Aus ATC (RADAR)
Sat 11:14:08 AM -9.4840 132.2250 305° West 455 524 38,000 -146 Descending FlightAware ADS-B
Sat 11:14:39 AM -9.4380 132.1760 314° West 456 525 38,000  Level FlightAware ADS-B
Sat 11:15:13 AM -9.3870 132.1210 313° West 455 524 38,000  Level FlightAware ADS-B
Sat 11:16:08 AM -9.3065 132.0332 313° West 443 510 38,000  Level Aus ATC (RADAR)
Sat 11:16:23 AM -9.2840 132.0100 313° West 454 522 38,000 100 Level FlightAware ADS-B
Sat 11:17:08 AM -9.2191 131.9382 313° West 444 511 38,100  Climbing Aus ATC (RADAR)
Sat 11:17:08 AM -9.2190 131.9390 313° West 455 524 38,000 -102 Descending FlightAware ADS-B
Sat 11:18:07 AM -9.1311 131.8432 313° West 445 512 38,000  Level Aus ATC (RADAR)
Sat 11:18:12 AM -9.1420 131.8540 313° West 455 524 38,000  Level FlightAware ADS-B
Sat 11:19:00 AM -9.0640 131.7710 314° West 455 524 38,000  Level FlightAware ADS-B
Sat 11:19:49 AM -8.9990 131.7010 313° West 454 522 38,000  Level FlightAware ADS-B
Sat 11:21:21 AM -8.8890 131.5770 313° West 454 522 38,000  Level FlightAware ADS-B
Sat 11:21:22 AM -8.8200 131.5645 313° West 449 517 38,000  Level Aus ATC (RADAR)
Sat 11:22:07 AM -8.8340 131.5160 312° West 454 522 38,000  Level FlightAware ADS-B
Sat 11:22:45 AM -8.7890 131.4650 312° West 454 522 38,000  Level FlightAware ADS-B
Sat 11:23:33 AM -8.7310 131.4000 312° West 454 522 38,000  Level FlightAware ADS-B
Sat 11:24:02 AM -8.5089 131.4530 210° Southwest 38,000  Level Aus ATC (Calculated)
Sat 11:24:10 AM -8.6870 131.3510 312° West 454 522 38,000  Level FlightAware ADS-B
Sat 11:24:57 AM -8.4000 131.4214 215° Southwest 38,000  Level Aus ATC (Calculated)
Sat 11:25:10 AM -8.6150 131.2700 312° West 454 522 38,000  Level FlightAware ADS-B
Sat 11:25:46 AM -8.5720 131.2220 312° West 454 522 38,000  Level FlightAware ADS-B
Sat 11:26:32 AM -8.5170 131.1600 312° West 454 522 38,000  Level FlightAware ADS-B
Sat 11:27:30 AM -8.4480 131.0820 312° West 454 522 38,000  Level FlightAware ADS-B
Sat 11:28:06 AM -8.4050 131.0340 312° West 454 522 38,000  Level FlightAware ADS-B
Sat 11:28:46 AM -8.3570 130.9800 312° West 454 522 38,000 15 Level FlightAware ADS-B
Sat 11:31:00 AM -8.0965 130.9233 348° North  Level Estimated
Sat 11:32:00 AM -7.9798 130.8980 348° North  Level Estimated
Sat 11:33:00 AM -7.8632 130.8726 348° North  Level Estimated
Sat 11:34:00 AM -7.7466 130.8473 348° North  Level Estimated
Sat 11:35:00 AM -7.6299 130.8220 348° North  Level Estimated
Sat 11:36:00 AM -7.5132 130.7967 348° North  Level Estimated
Sat 11:37:00 AM -7.3966 130.7714 348° North  Level Estimated
Sat 11:38:00 AM -7.2799 130.7462 348° North  Level Estimated
Sat 11:39:00 AM -7.1633 130.7209 348° North  Level Estimated
Sat 11:40:00 AM -7.0466 130.6957 348° North  Level Estimated
Sat 11:41:00 AM -6.9300 130.6704 348° North  Level Estimated
Sat 11:42:00 AM -6.8133 130.6452 348° North  Level Estimated
Sat 11:43:00 AM -6.6966 130.6200 348° North  Level Estimated
Sat 11:44:00 AM -6.5800 130.5948 348° North  Level Estimated
Sat 11:45:00 AM -6.4633 130.5696 348° North  Level Estimated
Sat 11:46:00 AM -6.3467 130.5445 348° North  Level Estimated
Sat 11:47:00 AM -6.2300 130.5193 348° North  Level Estimated
Sat 11:48:00 AM -6.1133 130.4942 348° North  Level Estimated
Sat 11:49:00 AM -5.9966 130.4690 348° North  Level Estimated
Sat 11:50:00 AM -5.8800 130.4439 348° North  Level Estimated
Sat 11:51:00 AM -5.7633 130.4188 348° North  Level Estimated
Sat 11:52:00 AM -5.6466 130.3937 348° North  Level Estimated
Sat 11:53:00 AM -5.5300 130.3686 348° North  Level Estimated
Sat 11:54:00 AM -5.4133 130.3435 348° North  Level Estimated
Sat 11:55:00 AM -5.2966 130.3185 348° North  Level Estimated
Sat 11:56:00 AM -5.1799 130.2934 348° North  Level Estimated
Sat 11:57:00 AM -5.0633 130.2683 348° North  Level Estimated
Sat 11:58:00 AM -4.9466 130.2433 348° North  Level Estimated
Sat 11:59:00 AM -4.8299 130.2182 348° North  Level Estimated
Sat 12:00:00 PM -4.7132 130.1932 348° North  Level Estimated
Sat 12:01:00 PM -4.5965 130.1682 348° North  Level Estimated
Sat 12:02:00 PM -4.4798 130.1432 348° North  Level Estimated
Sat 12:03:00 PM -4.3632 130.1182 348° North  Level Estimated
Sat 12:04:00 PM -4.2465 130.0932 348° North  Level Estimated
Sat 12:05:00 PM -4.1298 130.0682 348° North  Level Estimated
Sat 12:06:00 PM -4.0131 130.0432 348° North  Level Estimated
Sat 12:07:00 PM -3.8964 130.0182 348° North  Level Estimated
Sat 12:08:00 PM -3.7797 129.9933 348° North  Level Estimated
Sat 12:09:00 PM -3.6630 129.9683 348° North  Level Estimated
Sat 12:10:00 PM -3.5464 129.9433 348° North  Level Estimated
Sat 12:11:00 PM -3.4297 129.9184 348° North  Level Estimated
Sat 12:12:00 PM -3.3130 129.8935 348° North  Level Estimated
Sat 12:13:00 PM -3.1963 129.8685 348° North  Level Estimated
Sat 12:14:00 PM -3.0796 129.8436 348° North  Level Estimated
Sat 12:15:00 PM -2.9629 129.8187 348° North  Level Estimated
Sat 12:16:00 PM -2.8462 129.7937 348° North  Level Estimated
Sat 12:17:00 PM -2.7295 129.7688 348° North  Level Estimated
Sat 12:18:00 PM -2.6128 129.7439 348° North  Level Estimated
Sat 12:19:00 PM -2.4962 129.7190 348° North  Level Estimated
Sat 12:20:00 PM -2.3795 129.6941 348° North  Level Estimated
Sat 12:21:00 PM -2.2628 129.6692 348° North  Level Estimated
Sat 12:22:00 PM -2.1461 129.6443 348° North  Level Estimated
Sat 12:23:00 PM -2.0294 129.6194 348° North  Level Estimated
Sat 12:24:00 PM -1.9127 129.5945 348° North  Level Estimated
Sat 12:25:00 PM -1.7960 129.5697 348° North  Level Estimated
Sat 12:26:00 PM -1.6793 129.5448 348° North  Level Estimated
Sat 12:27:00 PM -1.5626 129.5199 348° North  Level Estimated
Sat 12:28:00 PM -1.4459 129.4950 348° North  Level Estimated
Sat 12:29:00 PM -1.3292 129.4702 348° North  Level Estimated
Sat 12:30:00 PM -1.2125 129.4453 348° North  Level Estimated
Sat 12:31:00 PM -1.0958 129.4204 348° North  Level Estimated
Sat 12:32:00 PM -0.9791 129.3956 348° North  Level Estimated
Sat 12:33:00 PM -0.8624 129.3707 348° North  Level Estimated
Sat 12:34:00 PM -0.7457 129.3458 348° North  Level Estimated
Sat 12:35:00 PM -0.6290 129.3210 348° North  Level Estimated
Sat 12:36:00 PM -0.5123 129.2961 348° North  Level Estimated
Sat 12:37:00 PM -0.3956 129.2713 348° North  Level Estimated
Sat 12:38:00 PM -0.2789 129.2464 348° North  Level Estimated
Sat 12:39:00 PM -0.1622 129.2215 348° North  Level Estimated
Sat 12:40:00 PM -0.0455 129.1967 348° North  Level Estimated
Sat 12:41:00 PM 0.0712 129.1718 348° North  Level Estimated
Sat 12:42:00 PM 0.1879 129.1470 348° North  Level Estimated
Sat 12:43:00 PM 0.3046 129.1221 348° North  Level Estimated
Sat 12:44:00 PM 0.4213 129.0972 348° North  Level Estimated
Sat 12:45:00 PM 0.5380 129.0724 348° North  Level Estimated
Sat 12:46:00 PM 0.6547 129.0475 348° North  Level Estimated
Sat 12:47:00 PM 0.7714 129.0226 348° North  Level Estimated
Sat 12:48:00 PM 0.8881 128.9978 348° North  Level Estimated
Sat 12:49:00 PM 1.0048 128.9729 348° North  Level Estimated
Sat 12:50:00 PM 1.1215 128.9481 348° North  Level Estimated
Sat 12:51:00 PM 1.2382 128.9232 348° North  Level Estimated
Sat 12:52:00 PM 1.3549 128.8983 348° North  Level Estimated
Sat 12:53:00 PM 1.4716 128.8735 348° North  Level Estimated
Sat 12:54:00 PM 1.5883 128.8486 348° North  Level Estimated
Sat 12:55:00 PM 1.7050 128.8237 348° North  Level Estimated
Sat 12:56:00 PM 1.8217 128.7988 348° North  Level Estimated
Sat 12:57:00 PM 1.9384 128.7740 348° North  Level Estimated
Sat 12:58:00 PM 2.0551 128.7491 348° North  Level Estimated
Sat 12:59:00 PM 2.1718 128.7242 348° North  Level Estimated
Sat 01:00:00 PM 2.2885 128.6993 348° North  Level Estimated
Sat 01:01:00 PM 2.4052 128.6744 348° North  Level Estimated
Sat 01:02:00 PM 2.5219 128.6495 348° North  Level Estimated
Sat 01:03:00 PM 2.6386 128.6246 348° North  Level Estimated
Sat 01:04:00 PM 2.7553 128.5997 348° North  Level Estimated
Sat 01:05:00 PM 2.8720 128.5747 348° North  Level Estimated
Sat 01:06:00 PM 2.9887 128.5498 348° North  Level Estimated
Sat 01:07:00 PM 3.1054 128.5249 348° North  Level Estimated
Sat 01:08:00 PM 3.2220 128.5000 348° North  Level Estimated
Sat 01:09:00 PM 3.3387 128.4750 348° North  Level Estimated
Sat 01:10:00 PM 3.4554 128.4501 348° North  Level Estimated
Sat 01:11:00 PM 3.5721 128.4251 348° North  Level Estimated
Sat 01:12:00 PM 3.6888 128.4002 348° North  Level Estimated
Sat 01:13:00 PM 3.8055 128.3752 348° North  Level Estimated
Sat 01:14:00 PM 3.9222 128.3502 348° North  Level Estimated
Sat 01:15:00 PM 4.0389 128.3253 348° North  Level Estimated
Sat 01:16:00 PM 4.1556 128.3003 348° North  Level Estimated
Sat 01:17:00 PM 4.2723 128.2753 348° North  Level Estimated
Sat 01:18:00 PM 4.3889 128.2503 348° North  Level Estimated
Sat 01:19:00 PM 4.5056 128.2253 348° North  Level Estimated
Sat 01:20:00 PM 4.6223 128.2003 348° North  Level Estimated
Sat 01:21:00 PM 4.7390 128.1752 348° North  Level Estimated
Sat 01:22:00 PM 4.8556 128.1502 348° North  Level Estimated
Sat 01:23:00 PM 4.9723 128.1252 348° North  Level Estimated
Sat 01:24:00 PM 5.0890 128.1001 348° North  Level Estimated
Sat 01:25:00 PM 5.2057 128.0751 348° North  Level Estimated
Sat 01:26:00 PM 5.3224 128.0500 348° North  Level Estimated
Sat 01:27:00 PM 5.4391 128.0249 348° North  Level Estimated
Sat 01:28:00 PM 5.5557 127.9998 348° North  Level Estimated
Sat 01:29:00 PM 5.6724 127.9747 348° North  Level Estimated
Sat 01:30:00 PM 5.7891 127.9496 348° North  Level Estimated
Sat 01:31:00 PM 5.9057 127.9245 348° North  Level Estimated
Sat 01:32:00 PM 6.0224 127.8994 348° North  Level Estimated
Sat 01:33:00 PM 6.1391 127.8742 348° North  Level Estimated
Sat 01:34:00 PM 6.2557 127.8491 348° North  Level Estimated
Sat 01:35:00 PM 6.3724 127.8239 348° North  Level Estimated
Sat 01:36:00 PM 6.4891 127.7988 348° North  Level Estimated
Sat 01:37:00 PM 6.6057 127.7736 348° North  Level Estimated
Sat 01:38:00 PM 6.7224 127.7484 348° North  Level Estimated
Sat 01:39:00 PM 6.8391 127.7232 348° North  Level Estimated
Sat 01:40:00 PM 6.9557 127.6979 348° North  Level Estimated
Sat 01:41:00 PM 7.0724 127.6727 348° North  Level Estimated
Sat 01:42:00 PM 7.1890 127.6475 348° North  Level Estimated
Sat 01:43:00 PM 7.3057 127.6222 348° North  Level Estimated
Sat 01:44:00 PM 7.4223 127.5969 348° North  Level Estimated
Sat 01:45:00 PM 7.5390 127.5717 348° North  Level Estimated
Sat 01:46:00 PM 7.6557 127.5464 348° North  Level Estimated
Sat 01:47:00 PM 7.7723 127.5210 348° North  Level Estimated
Sat 01:48:00 PM 7.8889 127.4957 348° North  Level Estimated
Sat 01:49:00 PM 8.0056 127.4704 348° North  Level Estimated
Sat 01:50:00 PM 8.1222 127.4450 348° North  Level Estimated
Sat 01:51:00 PM 8.2389 127.4197 348° North  Level Estimated
Sat 01:52:00 PM 8.3555 127.3943 348° North  Level Estimated
Sat 01:53:00 PM 8.4722 127.3689 348° North  Level Estimated
Sat 01:54:00 PM 8.5888 127.3435 348° North  Level Estimated
Sat 01:55:00 PM 8.7055 127.3180 348° North  Level Estimated
Sat 01:56:00 PM 8.8221 127.2926 348° North  Level Estimated
Sat 01:57:00 PM 8.9387 127.2671 348° North  Level Estimated
Sat 01:58:00 PM 9.0554 127.2416 348° North  Level Estimated
Sat 01:59:00 PM 9.1720 127.2161 348° North  Level Estimated
Sat 02:00:00 PM 9.2886 127.1906 348° North  Level Estimated
Sat 02:01:00 PM 9.4052 127.1651 348° North  Level Estimated
Sat 02:02:00 PM 9.5219 127.1395 348° North  Level Estimated
Sat 02:03:00 PM 9.6385 127.1140 348° North  Level Estimated
Sat 02:04:00 PM 9.7551 127.0884 348° North  Level Estimated
Sat 02:05:00 PM 9.8717 127.0628 348° North  Level Estimated
Sat 02:06:00 PM 9.9883 127.0372 348° North  Level Estimated
Sat 02:07:00 PM 10.1050 127.0116 348° North  Level Estimated
Sat 02:08:00 PM 10.2216 126.9859 348° North  Level Estimated
Sat 02:09:00 PM 10.3382 126.9602 348° North  Level Estimated
Sat 02:10:00 PM 10.4548 126.9345 348° North  Level Estimated
Sat 02:11:00 PM 10.5714 126.9088 348° North  Level Estimated
Sat 02:12:00 PM 10.6880 126.8831 348° North  Level Estimated
Sat 02:13:00 PM 10.8046 126.8574 348° North  Level Estimated
Sat 02:14:00 PM 10.9212 126.8316 348° North  Level Estimated
Sat 02:15:00 PM 11.0378 126.8058 348° North  Level Estimated
Sat 02:16:00 PM 11.1544 126.7800 348° North  Level Estimated
Sat 02:17:00 PM 11.2710 126.7542 348° North  Level Estimated
Sat 02:18:00 PM 11.3876 126.7283 348° North  Level Estimated
Sat 02:19:00 PM 11.5042 126.7024 348° North  Level Estimated
Sat 02:20:00 PM 11.6208 126.6765 348° North  Level Estimated
Sat 02:21:00 PM 11.7374 126.6506 348° North  Level Estimated
Sat 02:22:00 PM 11.8540 126.6247 348° North  Level Estimated
Sat 02:23:00 PM 11.9705 126.5987 348° North  Level Estimated
Sat 02:24:00 PM 12.0871 126.5727 348° North  Level Estimated
Sat 02:25:00 PM 12.2037 126.5467 348° North  Level Estimated
Sat 02:26:00 PM 12.3203 126.5207 348° North  Level Estimated
Sat 02:27:00 PM 12.4368 126.4946 348° North  Level Estimated
Sat 02:28:00 PM 12.5534 126.4686 348° North  Level Estimated
Sat 02:29:00 PM 12.6700 126.4425 348° North  Level Estimated
Sat 02:30:00 PM 12.7865 126.4163 348° North  Level Estimated
Sat 02:31:00 PM 12.9031 126.3902 348° North  Level Estimated
Sat 02:32:00 PM 13.0197 126.3640 348° North  Level Estimated
Sat 02:33:00 PM 13.1362 126.3378 348° North  Level Estimated
Sat 02:34:00 PM 13.2528 126.3116 348° North  Level Estimated
Sat 02:35:00 PM 13.3693 126.2853 348° North  Level Estimated
Sat 02:36:00 PM 13.4859 126.2591 348° North  Level Estimated
Sat 02:37:00 PM 13.6024 126.2328 348° North  Level Estimated
Sat 02:38:00 PM 13.7190 126.2065 348° North  Level Estimated
Sat 02:39:00 PM 13.8355 126.1801 348° North  Level Estimated
Sat 02:40:00 PM 13.9520 126.1537 348° North  Level Estimated
Sat 02:41:00 PM 14.0686 126.1273 348° North  Level Estimated
Sat 02:42:00 PM 14.1851 126.1009 348° North  Level Estimated
Sat 02:42:50 PM 12.5840 119.4180 348° North 451 519 41,000  Level FlightAware ADS-B
Sat 02:43:00 PM 14.3016 126.0744 348° North  Level Estimated
Sat 02:43:27 PM 12.6580 119.4020 348° North 452 520 41,000  Level FlightAware ADS-B
Sat 02:44:17 PM 12.7620 119.3780 347° North 452 520 41,000  Level FlightAware ADS-B
Sat 02:44:45 PM 12.8220 119.3650 348° North 453 521 41,000  Level FlightAware ADS-B
Sat 02:47:00 PM 13.0887 119.3966 North  Level Estimated
Sat 02:48:00 PM 13.2072 119.4106 North  Level Estimated
Sat 02:48:56 PM 13.3360 119.2790 North 450 518 41,000  Level FlightAware ADS-B
Sat 02:49:00 PM 13.3258 119.4247 North  Level Estimated
Sat 02:49:40 PM 13.4270 119.2910 North 451 519 41,000  Level FlightAware ADS-B
Sat 02:51:11 PM 13.6180 119.3140 North 452 520 41,000  Level FlightAware ADS-B
Sat 02:52:15 PM 13.7530 119.3290 North 453 521 41,000  Level FlightAware ADS-B
Sat 02:52:50 PM 13.8250 119.3380 North 455 524 41,000  Level FlightAware ADS-B
Sat 02:53:32 PM 13.9140 119.3480 North 457 526 41,000  Level FlightAware ADS-B
Sat 02:54:21 PM 14.0180 119.3590 North 459 528 41,000  Level FlightAware ADS-B
Sat 02:54:58 PM 14.0970 119.3670 North 461 531 41,000  Level FlightAware ADS-B
Sat 02:56:42 PM 14.3190 119.3900 North 468 539 41,000  Level FlightAware ADS-B
Sat 02:57:24 PM 14.4100 119.4010 North 470 541 41,000  Level FlightAware ADS-B
Sat 02:58:07 PM 14.5030 119.4190 11° North 469 540 41,000  Level FlightAware ADS-B
Sat 02:58:45 PM 14.5850 119.4380 13° North 469 540 41,000  Level FlightAware ADS-B
Sat 02:59:27 PM 14.6730 119.4630 15° North 466 536 41,000  Level FlightAware ADS-B
Sat 03:00:26 PM 14.7900 119.5100 21° North 464 534 41,000  Level FlightAware ADS-B
Sat 03:01:21 PM 14.9010 119.5570 22° Northeast 466 536 41,000  Level FlightAware ADS-B
Sat 03:02:02 PM 14.9820 119.5920 23° Northeast 468 539 41,000  Level FlightAware ADS-B
Sat 03:02:46 PM 15.0670 119.6280 22° Northeast 468 539 41,000  Level FlightAware ADS-B
Sat 03:03:28 PM 15.1600 119.6460 11° North 472 543 41,000  Level FlightAware ADS-B
Sat 03:03:54 PM 15.2180 119.6470 North 475 547 41,000  Level FlightAware ADS-B
Sat 03:04:36 PM 15.3110 119.6470 360° North 476 548 41,000  Level FlightAware ADS-B
Sat 03:05:19 PM 15.4070 119.6460 359° North 478 550 41,000  Level FlightAware ADS-B
Sat 03:06:00 PM 15.4920 119.6220 345° North 478 550 41,000  Level FlightAware ADS-B
Sat 03:06:40 PM 15.5770 119.5910 341° North 479 551 41,000  Level FlightAware ADS-B
Sat 03:07:24 PM 15.6700 119.5570 341° North 482 555 41,000  Level FlightAware ADS-B
Sat 03:08:06 PM 15.7590 119.5240 340° North 482 555 41,000  Level FlightAware ADS-B
Sat 03:08:51 PM 15.8520 119.4880 340° North 480 552 41,000  Level FlightAware ADS-B
Sat 03:09:29 PM 15.9150 119.4280 318° Northwest 475 547 41,000  Level FlightAware ADS-B
Sat 03:10:08 PM 15.9460 119.3470 292° West 473 544 41,000  Level FlightAware ADS-B
Sat 03:10:47 PM 15.9710 119.2690 288° West 474 545 41,000  Level FlightAware ADS-B
Sat 03:12:19 PM 16.0370 119.0630 288° West 478 550 41,000  Level FlightAware ADS-B
Sat 03:13:00 PM 16.0650 118.9730 288° West 480 552 41,000  Level FlightAware ADS-B
Sat 03:13:41 PM 16.0930 118.8820 288° West 482 555 41,000  Level FlightAware ADS-B
Sat 03:14:23 PM 16.1270 118.7910 291° West 481 554 41,000  Level FlightAware ADS-B
Sat 03:15:00 PM 16.1640 118.7150 297° West 481 554 41,000  Level FlightAware ADS-B
Sat 03:15:43 PM 16.2170 118.6330 304° West 477 549 41,000 -614 Level FlightAware ADS-B
Sat 03:16:28 PM 16.2770 118.5510 307° West 474 545 40,100 -1,186 Descending FlightAware ADS-B
Sat 03:17:09 PM 16.3320 118.4770 308° West 471 542 39,300 -1,183 Descending FlightAware ADS-B
Sat 03:17:39 PM 16.3720 118.4240 308° West 475 547 38,700 -767 Descending FlightAware ADS-B
Sat 03:18:35 PM 16.4400 118.3310 307° West 479 551 38,200 -294 Descending FlightAware ADS-B
Sat 03:19:21 PM 16.4920 118.2590 307° West 479 551 38,200  Level FlightAware ADS-B
Sat 03:19:58 PM 16.5340 118.2010 307° West 479 551 38,200  Level FlightAware ADS-B
Sat 03:21:24 PM 16.6310 118.0660 307° West 479 551 38,200  Level FlightAware ADS-B
Sat 03:22:36 PM 16.7130 117.9530 307° West 479 551 38,200  Level FlightAware ADS-B
Sat 03:23:13 PM 16.7550 117.8950 307° West 479 551 38,200  Level FlightAware ADS-B
Sat 03:23:59 PM 16.8070 117.8220 307° West 479 551 38,200  Level FlightAware ADS-B
Sat 03:24:36 PM 16.8490 117.7640 307° West 479 551 38,200  Level FlightAware ADS-B
Sat 03:26:15 PM 16.9610 117.6080 307° West 479 551 38,200  Level FlightAware ADS-B
Sat 03:27:03 PM 17.0150 117.5330 307° West 479 551 38,200  Level FlightAware ADS-B
Sat 03:27:38 PM 17.0550 117.4780 307° West 479 551 38,200 63 Level FlightAware ADS-B
Sat 03:30:00 PM 17.3280 117.5534 15° North  Level Estimated
Sat 03:31:00 PM 17.4434 117.5854 15° North  Level Estimated
Sat 03:32:00 PM 17.5587 117.6174 15° North  Level Estimated
Sat 03:33:00 PM 17.6741 117.6494 15° North  Level Estimated
Sat 03:34:00 PM 17.7894 117.6814 15° North  Level Estimated
Sat 03:35:00 PM 17.9048 117.7136 15° North  Level Estimated
Sat 03:36:00 PM 18.0201 117.7457 15° North  Level Estimated
Sat 03:37:00 PM 18.1354 117.7779 15° North  Level Estimated
Sat 03:38:00 PM 18.2507 117.8101 15° North  Level Estimated
Sat 03:39:00 PM 18.3661 117.8424 15° North  Level Estimated
Sat 03:40:00 PM 18.4814 117.8747 15° North  Level Estimated
Sat 03:41:00 PM 18.5967 117.9071 15° North  Level Estimated
Sat 03:42:00 PM 18.7120 117.9395 15° North  Level Estimated
Sat 03:43:00 PM 18.8273 117.9719 15° North  Level Estimated
Sat 03:44:00 PM 18.9426 118.0044 15° North  Level Estimated
Sat 03:45:00 PM 19.0578 118.0370 15° North  Level Estimated
Sat 03:46:00 PM 19.1731 118.0696 15° North  Level Estimated
Sat 03:47:00 PM 19.2884 118.1022 15° North  Level Estimated
Sat 03:48:00 PM 19.4037 118.1349 15° North  Level Estimated
Sat 03:49:00 PM 19.5189 118.1676 15° North  Level Estimated
Sat 03:50:00 PM 19.6342 118.2004 15° North  Level Estimated
Sat 03:51:00 PM 19.7494 118.2332 15° North  Level Estimated
Sat 03:52:00 PM 19.8647 118.2661 15° North  Level Estimated
Sat 03:53:00 PM 19.9799 118.2990 15° North  Level Estimated
Sat 03:54:00 PM 20.0951 118.3319 15° North  Level Estimated
Sat 03:55:00 PM 20.2103 118.3649 15° North  Level Estimated
Sat 03:56:00 PM 20.3256 118.3980 15° North  Level Estimated
Sat 03:57:00 PM 20.4408 118.4311 15° North  Level Estimated
Sat 03:58:00 PM 20.5560 118.4643 15° North  Level Estimated
Sat 03:59:00 PM 20.6712 118.4975 15° North  Level Estimated
Sat 04:00:00 PM 20.7864 118.5307 15° North  Level Estimated
Sat 04:01:00 PM 20.9015 118.5640 15° North  Level Estimated
Sat 04:02:00 PM 21.0167 118.5974 15° North  Level Estimated
Sat 04:03:00 PM 21.1319 118.6308 15° North  Level Estimated
Sat 04:04:00 PM 21.2470 118.6643 15° North  Level Estimated
Sat 04:05:00 PM 21.3622 118.6978 15° North  Level Estimated
Sat 04:06:00 PM 21.4774 118.7314 15° North  Level Estimated
Sat 04:07:00 PM 21.5925 118.7650 15° North  Level Estimated
Sat 04:08:00 PM 21.7076 118.7987 15° North  Level Estimated
Sat 04:09:00 PM 21.8228 118.8324 15° North  Level Estimated
Sat 04:10:00 PM 21.9379 118.8662 15° North  Level Estimated
Sat 04:11:00 PM 22.0530 118.9000 15° North  Level Estimated
Sat 04:11:30 PM 22.3050 116.1820 15° North 447 514 41,000  Level FlightAware ADS-B
Sat 04:12:00 PM 22.1681 118.9339 15° North  Level Estimated
Sat 04:12:11 PM 22.3770 116.1790 358° North 447 514 41,000  Level FlightAware ADS-B
Sat 04:12:52 PM 22.4790 116.1760 358° North 447 514 41,000  Level FlightAware ADS-B
Sat 04:13:42 PM 22.5900 116.1770 360° North 445 512 41,000  Level FlightAware ADS-B
Sat 04:14:22 PM 22.6730 116.1930 10° North 443 510 41,000  Level FlightAware ADS-B
Sat 04:15:00 PM 22.7380 116.2130 16° North 443 510 41,000  Level FlightAware ADS-B
Sat 04:16:01 PM 22.8400 116.2450 16° North 443 510 41,000  Level FlightAware ADS-B
Sat 04:16:38 PM 22.9020 116.2640 16° North 443 510 41,000  Level FlightAware ADS-B
Sat 04:17:17 PM 22.9670 116.2840 16° North 443 510 41,000  Level FlightAware ADS-B
Sat 04:18:04 PM 23.0460 116.3090 16° North 443 510 41,000  Level FlightAware ADS-B
Sat 04:18:42 PM 23.1100 116.3290 16° North 443 510 41,000  Level FlightAware ADS-B
Sat 04:19:30 PM 23.1900 116.3540 16° North 443 510 41,000  Level FlightAware ADS-B
Sat 04:20:05 PM 23.2490 116.3720 16° North 443 510 41,000  Level FlightAware ADS-B
Sat 04:22:00 PM 23.4466 116.4974 30° Northeast  Level Estimated
Sat 04:22:04 PM 23.4480 116.4340 30° Northeast 443 510 41,000  Level FlightAware ADS-B
Sat 04:22:59 PM 23.4970 116.9110 84° East 453 521 41,100 65 Climbing FlightAware ADS-B
Sat 04:23:36 PM 23.5430 116.9630 46° Northeast 453 521 41,100  Level FlightAware ADS-B
Sat 04:24:24 PM 23.6020 117.0300 46° Northeast 453 521 41,100  Level FlightAware ADS-B
Sat 04:25:31 PM 23.6850 117.1240 46° Northeast 453 521 41,100  Level FlightAware ADS-B
Sat 04:26:30 PM 23.7580 117.2060 46° Northeast 453 521 41,100  Level FlightAware ADS-B
Sat 04:27:08 PM 23.8050 117.2590 46° Northeast 453 521 41,100  Level FlightAware ADS-B
Sat 04:28:19 PM 23.8930 117.3590 46° Northeast 453 521 41,100  Level FlightAware ADS-B
Sat 04:28:57 PM 23.9400 117.4120 46° Northeast 453 521 41,100  Level FlightAware ADS-B
Sat 04:31:00 PM 24.1572 117.5351 27° Northeast  Level Estimated
Sat 04:31:04 PM 24.0970 117.5900 27° Northeast 453 521 41,100  Level FlightAware ADS-B
Sat 04:33:00 PM 24.3027 117.7045 27° Northeast  Level Estimated
Sat 04:34:00 PM 24.4090 117.7639 27° Northeast  Level Estimated
Sat 04:35:00 PM 24.5153 117.8234 27° Northeast  Level Estimated
Sat 04:36:00 PM 24.6216 117.8830 27° Northeast  Level Estimated
Sat 04:37:00 PM 24.7279 117.9427 27° Northeast  Level Estimated
Sat 04:38:00 PM 24.8342 118.0025 27° Northeast  Level Estimated
Sat 04:39:00 PM 24.9404 118.0624 27° Northeast  Level Estimated
Sat 04:39:55 PM 24.9930 118.5830 27° Northeast 464 534 41,100  Level FlightAware ADS-B
Sat 04:40:00 PM 25.0466 118.1224 27° Northeast  Level Estimated
Sat 04:41:49 PM 25.1610 118.7820 24° Northeast 465 535 41,100  Level FlightAware ADS-B
Sat 04:42:00 PM 25.2201 118.6947 24° Northeast  Level Estimated
Sat 04:44:00 PM 25.4003 118.8958 23° Northeast  Level Estimated
Sat 04:44:23 PM 25.3580 119.0160 23° Northeast 465 535 41,100  Level FlightAware ADS-B
Sat 04:46:00 PM 25.5365 119.0970 22° Northeast  Level Estimated
Sat 04:47:00 PM 25.6469 119.1473 22° Northeast  Level Estimated
Sat 04:48:00 PM 25.7572 119.1976 22° Northeast  Level Estimated
Sat 04:49:00 PM 25.8676 119.2480 22° Northeast  Level Estimated
Sat 04:50:00 PM 25.9779 119.2985 22° Northeast  Level Estimated
Sat 04:51:00 PM 26.0882 119.3492 22° Northeast  Level Estimated
Sat 04:52:00 PM 26.1985 119.3999 22° Northeast  Level Estimated
Sat 04:52:44 PM 26.2860 119.6580 22° Northeast 467 537 41,100  Level FlightAware ADS-B
Sat 04:53:29 PM 26.3710 119.7210 34° Northeast 467 537 41,100  Level FlightAware ADS-B
Sat 04:54:10 PM 26.4560 119.7800 32° Northeast 465 535 41,100  Level FlightAware ADS-B
Sat 04:54:49 PM 26.5270 119.8300 32° Northeast 465 535 41,100  Level FlightAware ADS-B
Sat 04:57:00 PM 26.7718 119.9296 20° North  Level Estimated
Sat 04:57:38 PM 26.8590 120.0640 20° North 470 541 41,100  Level FlightAware ADS-B
Sat 04:58:41 PM 26.9750 120.1460 32° Northeast 469 540 41,100  Level FlightAware ADS-B
Sat 04:59:21 PM 27.0480 120.1990 33° Northeast 469 540 41,100  Level FlightAware ADS-B
Sat 04:59:58 PM 27.1110 120.2440 32° Northeast 467 537 41,100  Level FlightAware ADS-B
Sat 05:00:45 PM 27.2020 120.3070 32° Northeast 465 535 41,100  Level FlightAware ADS-B
Sat 05:01:23 PM 27.2700 120.3560 33° Northeast 462 532 41,100  Level FlightAware ADS-B
Sat 05:02:02 PM 27.3410 120.4060 32° Northeast 460 529 41,100  Level FlightAware ADS-B
Sat 05:02:49 PM 27.4220 120.4630 32° Northeast 459 528 41,100  Level FlightAware ADS-B
Sat 05:03:32 PM 27.5040 120.5210 32° Northeast 460 529 41,100  Level FlightAware ADS-B
Sat 05:04:16 PM 27.5820 120.5770 32° Northeast 462 532 41,100  Level FlightAware ADS-B
Sat 05:06:00 PM 27.7805 120.6425 16° North  Level Estimated
Sat 05:06:02 PM 27.7810 120.6740 16° North 453 521 41,100  Level FlightAware ADS-B
Sat 05:06:34 PM 27.8500 120.6610 351° North 448 516 41,100  Level FlightAware ADS-B
Sat 05:07:14 PM 27.9350 120.6390 347° North 446 513 41,100  Level FlightAware ADS-B
Sat 05:07:52 PM 28.0100 120.6210 348° North 446 513 41,100  Level FlightAware ADS-B
Sat 05:08:40 PM 28.1090 120.5950 347° North 444 511 41,100  Level FlightAware ADS-B
Sat 05:09:20 PM 28.1890 120.5750 348° North 442 509 41,100  Level FlightAware ADS-B
Sat 05:10:33 PM 28.3330 120.5380 347° North 440 506 41,100  Level FlightAware ADS-B
Sat 05:11:29 PM 28.4280 120.5140 347° North 428 493 41,100 -58 Level FlightAware ADS-B
Sat 05:12:16 PM 28.5360 120.4880 348° North 433 498 41,000 -608 Descending FlightAware ADS-B
Sat 05:12:48 PM 28.6020 120.4820 355° North 446 513 40,300 -1,333 Descending FlightAware ADS-B
Sat 05:13:28 PM 28.6860 120.4890 North 454 522 39,400 -1,404 Descending FlightAware ADS-B
Sat 05:14:22 PM 28.8000 120.5130 10° North 472 543 38,100 -1,405 Descending FlightAware ADS-B
Sat 05:15:19 PM 28.9190 120.5570 18° North 486 559 36,800 -1,409 Descending FlightAware ADS-B
Sat 05:16:17 PM 29.0290 120.6340 31° Northeast 496 571 35,400 -1,484 Descending FlightAware ADS-B
Sat 05:16:52 PM 29.0970 120.6890 35° Northeast 496 571 34,500 -1,553 Descending FlightAware ADS-B
Sat 05:17:42 PM 29.1850 120.7600 35° Northeast 490 564 33,200 -1,533 Descending FlightAware ADS-B
Sat 05:18:22 PM 29.2600 120.8200 35° Northeast 472 543 32,200 -1,520 Descending FlightAware ADS-B
Sat 05:18:57 PM 29.3210 120.8690 35° Northeast 477 549 31,300 -1,650 Descending FlightAware ADS-B
Sat 05:19:42 PM 29.4060 120.9370 35° Northeast 475 547 30,000 -1,624 Descending FlightAware ADS-B
Sat 05:20:22 PM 29.4770 120.9950 35° Northeast 472 543 29,000 -1,553 Descending FlightAware ADS-B
Sat 05:21:07 PM 29.5590 121.0610 35° Northeast 457 526 27,800 -1,600 Descending FlightAware ADS-B
Sat 05:21:52 PM 29.6340 121.1210 35° Northeast 449 517 26,600 -1,575 Descending FlightAware ADS-B
Sat 05:22:27 PM 29.6930 121.1690 35° Northeast 441 507 25,700 -1,575 Descending FlightAware ADS-B
Sat 05:23:12 PM 29.7710 121.2330 35° Northeast 435 501 24,500 -966 Descending FlightAware ADS-B
Sat 05:23:54 PM 29.8320 121.2830 35° Northeast 433 498 24,300 -1,618 Descending FlightAware ADS-B
Sat 05:24:41 PM 29.9180 121.3490 34° Northeast 427 491 22,100 -1,545 Descending FlightAware ADS-B
Sat 05:26:06 PM 30.0520 121.4330 28° Northeast 404 465 20,900 -595 Descending FlightAware ADS-B
Sat 05:26:42 PM 30.1020 121.4650 29° Northeast 404 465 20,900  Level FlightAware ADS-B
Sat 05:27:42 PM 30.1850 121.5190 29° Northeast 404 465 20,900  Level FlightAware ADS-B
Sat 05:28:17 PM 30.2340 121.5500 29° Northeast 404 465 20,900 -1,372 Level FlightAware ADS-B
Sat 05:31:00 PM 30.5344 121.6299 13° North  Level FlightAware Approximate
Sat 05:32:00 PM 30.6449 121.6594 13° North  Level FlightAware Approximate
Sat 05:33:00 PM 30.7554 121.6890 13° North  Level FlightAware Approximate
Sat 05:34:00 PM 30.8660 121.7186 13° North  Level FlightAware Approximate
Sat 05:35:00 PM 30.9765 121.7484 13° North  Level FlightAware Approximate
Sat 05:36:00 PM 31.0870 121.7782 13° North  Level FlightAware Approximate
Sat 05:37:00 PM 31.1472 121.7944 359° North  Level FlightAware Approximate
Sat 05:37:06 PM 31.0550 121.6530 359° North 262 302 8,000  Level FlightAware ADS-B
Sat 05:37:26 PM 31.0780 121.6530 360° North 256 295 7,800 -720 Descending FlightAware ADS-B
Sat 05:37:56 PM 31.1120 121.6520 359° North 228 262 7,400 -1,200 Descending FlightAware ADS-B
Sat 05:38:21 PM 31.1410 121.6500 357° North 243 280 6,700 -1,543 Descending FlightAware ADS-B
Sat 05:38:31 PM 31.1500 121.6500 360° North 244 281 6,500 -450 Descending FlightAware ADS-B
Sat 05:39:01 PM 31.1800 121.6470 355° North 242 278 6,400 -771 Descending FlightAware ADS-B
Sat 05:39:41 PM 31.2180 121.6450 357° North 242 278 5,600 -1,694 Descending FlightAware ADS-B
Sat 05:40:26 PM 31.2780 121.6420 358° North 208 239 4,000 -1,964 Descending FlightAware ADS-B
Sat 05:40:36 PM 31.2860 121.6420 360° North 213 245 3,800 -1,200 Descending FlightAware ADS-B
Sat 05:41:21 PM 31.3200 121.6670 32° Northeast 210 242 2,900 -943 Descending FlightAware ADS-B
Sat 05:41:46 PM 31.3270 121.6940 73° East 192 221 2,700 -600 Descending FlightAware ADS-B
Sat 05:42:21 PM 31.3160 121.7260 112° Southeast 181 208 2,300 -600 Descending FlightAware ADS-B
Sat 05:42:36 PM 31.3050 121.7320 155° Southeast 171 197 2,200 -293 Descending FlightAware ADS-B
Sat 05:43:02 PM 31.2870 121.7380 164° South 168 193 2,100 -118 Descending FlightAware ADS-B
Sat 05:43:27 PM 31.2680 121.7460 160° South 170 196 2,100 -375 Level FlightAware ADS-B
Sat 05:44:06 PM 31.2390 121.7570 162° South 156 180 1,700 -364 Descending FlightAware ADS-B
Sat 05:44:33 PM 31.2230 121.7630 162° South 156 180 1,700  Level FlightAware ADS-B
Sat 05:47:00 PM 31.1428 121.7924 163° South  Level Estimated
Sat 05:48:00 PM 31.1428 121.7924 221° Southwest  Level Estimated
Sat 05:49:00 PM 31.1428 121.7924 221° Southwest  Level Estimated
Sat 05:50:00 PM 31.1428 121.7924 221° Southwest  Level Estimated
Sat 05:51:00 PM 31.1428 121.7924 221° Southwest  Level Estimated
Sat 05:52:00 PM 31.1428 121.7924 221° Southwest  Level Estimated
Sat 05:53:00 PM 31.1428 121.7924 221° Southwest  Level Estimated

Login

Don't have an account? Register now (free) for customized features, flight alerts, and more!